Airfield :
LOGIN :

Register | Disclaimer

   EN    FR    IT 

 










Legend :    VFR   Marginal VFR   IFR   Intensive IFR   Very Intensive IFR
Visi :
Ceiling :
>= 8 km
>= 3000ft
5 to 8 km
1000 to 3000 ft
1500m to 5 km
500 to 1000 ft
800 to 1500m
200 to 500 ft
< 800m
< 200 ft
Symbols :   Thunderstorms  Fog  Heavy snow  Heavy precipitations  Wind > 20 kt
SIGMETs :     Misc.  Thunderstorms  Icing  Turbulence  Mountain Waves  Volcanic Ashes






- Airport Elevation : 600 ft
- IATA code : VIE


LOWW - Vienna Schwechat

CURRENT METAR :
  • 201850Z 08008KT 7000 -RA FEW005 SCT007 BKN010 10/09 Q1012 TEMPO BKN007

EXPIRED METARs :
  • 201820Z 07005KT 5000 -RA FEW004 BKN008 10/09 Q1012 TEMPO BKN010
  • 201750Z 06007KT 4900 RA FEW004 BKN008 09/09 Q1012 TEMPO 5000 -SHRA BKN010
  • 201720Z 03007KT 4000 -RA BR FEW001 SCT004 BKN011 09/08 Q1012 TEMPO 5000 BKN008
  • 201650Z 02006KT 3900 -RA BR FEW001 SCT002 BKN008 08/08 Q1013 RERA TEMPO BKN005
  • 201620Z 36007KT 3400 -RA BR FEW001 BKN002 BKN014 08/08 Q1013 TEMPO 2500 RA BKN005

TAF COR TAF LOWW
Valid from the 20 at 18:00 until the 22 at 00:00 UTC


201715Z 2018/2124 10005KT 6000 -RA FEW002 SCT005 OVC015 TX11/2113Z TN08/2018Z
TEMPO 2018/2100 02007KT 2000 RA BKN002
PROB40
TEMPO 2100/2108 0800 -RA BCFG BKN001
BECMG 2110/2113 15012KT 9999 NSW BKN020
TEMPO 2113/2124 15018KT FEW020



MET'MAP, your aeronautical weather chart ! - Copyright ORBIFLY December 2007 - Disclaimer

ORBIFLY MET'MAP TEAM :

Programming & Development : Alexandra Zaïnal
Concept & Development : Baudouin d'Aumeries
Co-Development & Prog : Marc-Olivier Méhu
Technical & hardware support : Manuel Goepfert

Contact : metmap@orbifly.com




SOURCES & CREDITS :

   NOAA